createdAt,value
2023-01-21T00:02:09.112Z,73.95
2023-01-21T00:07:11.305Z,73.05
2023-01-21T00:12:14.480Z,71.70
2023-01-21T00:17:16.548Z,69.15
2023-01-21T00:22:18.745Z,76.55
2023-01-21T00:27:20.906Z,69.90
2023-01-21T00:32:23.253Z,77.85
2023-01-21T00:37:25.781Z,74.25
2023-01-21T00:42:28.667Z,75.38
2023-01-21T00:47:30.718Z,70.85
2023-01-21T00:52:32.755Z,70.97
2023-01-21T00:57:34.787Z,77.57
2023-01-21T01:02:36.858Z,82.57
2023-01-21T01:07:41.075Z,81.28
2023-01-21T01:12:43.324Z,75.00
2023-01-21T01:17:45.512Z,73.70
2023-01-21T01:22:47.518Z,82.20
2023-01-21T01:27:49.546Z,76.18
2023-01-21T01:32:51.726Z,75.55
2023-01-21T01:37:54.250Z,75.15
2023-01-21T01:42:56.528Z,72.65
2023-01-21T01:48:02.436Z,76.20
2023-01-21T01:53:04.532Z,83.07
2023-01-21T01:58:10.863Z,79.30
2023-01-21T02:03:31.983Z,79.90
2023-01-21T02:08:36.057Z,76.45
2023-01-21T02:13:38.396Z,78.88
2023-01-21T02:18:59.536Z,79.80
2023-01-21T02:24:20.457Z,74.80
2023-01-21T02:30:01.362Z,80.25
2023-01-21T02:35:26.291Z,75.77
2023-01-21T02:40:43.089Z,72.65
2023-01-21T02:46:25.893Z,70.82
2023-01-21T02:51:28.127Z,71.03
2023-01-21T02:56:30.270Z,71.75
2023-01-21T03:01:55.208Z,71.03
2023-01-21T03:07:13.322Z,76.32
2023-01-21T03:12:18.053Z,72.80
2023-01-21T03:17:31.659Z,77.65
2023-01-21T03:22:36.338Z,68.72
2023-01-21T03:27:41.015Z,67.50
2023-01-21T03:32:48.183Z,67.95
2023-01-21T03:37:56.740Z,63.13
2023-01-21T03:42:59.260Z,65.32
2023-01-21T03:48:11.605Z,70.47
2023-01-21T03:53:13.632Z,67.72
2023-01-21T03:58:15.661Z,75.18
2023-01-21T04:03:17.909Z,71.28
2023-01-21T04:08:20.083Z,66.20
2023-01-21T04:13:22.084Z,68.35
2023-01-21T04:18:24.370Z,71.40
2023-01-21T04:23:26.563Z,67.32
2023-01-21T04:28:28.676Z,73.20
2023-01-21T04:33:30.780Z,64.43
2023-01-21T04:38:33.175Z,66.63
2023-01-21T04:43:35.164Z,66.72
2023-01-21T04:48:37.335Z,70.50
2023-01-21T04:53:39.374Z,68.47
2023-01-21T04:58:41.381Z,67.82
2023-01-21T05:03:43.408Z,63.78
2023-01-21T05:08:45.655Z,66.95
2023-01-21T05:13:47.841Z,65.43
2023-01-21T05:18:49.925Z,69.38
2023-01-21T05:23:52.191Z,61.13
2023-01-21T05:28:54.295Z,63.67
2023-01-21T05:33:56.837Z,58.35
2023-01-21T05:38:58.996Z,62.47
2023-01-21T05:44:00.994Z,62.90
2023-01-21T05:49:03.461Z,67.93
2023-01-21T05:54:05.517Z,71.78
2023-01-21T05:59:09.104Z,67.78
2023-01-21T06:04:11.096Z,61.28
2023-01-21T06:09:13.266Z,67.90
2023-01-21T06:14:15.251Z,69.53
2023-01-21T06:19:18.082Z,65.45
2023-01-21T06:24:20.158Z,70.65
2023-01-21T06:29:22.202Z,64.70
2023-01-21T06:34:24.185Z,69.65
2023-01-21T06:39:26.253Z,68.55
2023-01-21T06:44:28.282Z,63.88
2023-01-21T06:49:30.269Z,69.07
2023-01-21T06:54:32.582Z,70.50
2023-01-21T06:59:34.564Z,72.53
2023-01-21T07:04:36.733Z,76.43
2023-01-21T07:09:38.804Z,72.47
2023-01-21T07:14:41.013Z,68.88
2023-01-21T07:19:43.075Z,68.75
2023-01-21T07:24:45.123Z,66.68
2023-01-21T07:29:47.327Z,63.88
2023-01-21T07:34:49.738Z,69.00
2023-01-21T07:39:54.498Z,72.25
2023-01-21T07:44:57.172Z,66.60
2023-01-21T07:50:04.685Z,75.05
2023-01-21T07:55:08.045Z,70.88
2023-01-21T08:00:10.880Z,67.82
2023-01-21T08:05:16.183Z,76.22
2023-01-21T08:10:19.529Z,75.13
2023-01-21T08:15:21.576Z,70.93
2023-01-21T08:20:23.990Z,72.95
2023-01-21T08:25:26.126Z,71.13
2023-01-21T08:30:28.220Z,77.97
2023-01-21T08:35:30.312Z,72.57
2023-01-21T08:40:32.374Z,79.32
2023-01-21T08:45:34.442Z,75.20
2023-01-21T08:50:36.493Z,85.65
2023-01-21T08:55:38.721Z,77.40
2023-01-21T09:00:41.855Z,79.22
2023-01-21T09:05:44.005Z,98.60
2023-01-21T09:11:01.345Z,84.93
2023-01-21T09:16:08.851Z,93.22
2023-01-21T09:21:12.136Z,106.30
2023-01-21T09:26:17.139Z,92.63
2023-01-21T09:31:21.647Z,98.78
2023-01-21T09:36:26.945Z,100.90
2023-01-21T09:41:46.045Z,97.78
2023-01-21T09:47:01.497Z,94.25
2023-01-21T09:52:22.618Z,104.60
2023-01-21T09:57:31.616Z,88.07
2023-01-21T10:02:36.359Z,97.25
2023-01-21T10:07:48.150Z,102.38
2023-01-21T10:13:14.539Z,110.45
2023-01-21T10:18:23.306Z,96.35
2023-01-21T10:23:33.727Z,99.72
2023-01-21T10:33:40.715Z,95.75
2023-01-21T10:38:51.644Z,98.43
2023-01-21T10:44:02.676Z,99.38
2023-01-21T10:49:27.490Z,93.03
2023-01-21T10:55:02.443Z,88.22
2023-01-21T11:00:22.051Z,82.10
2023-01-21T11:05:25.796Z,76.85
2023-01-21T11:10:28.257Z,91.93
2023-01-21T11:15:33.309Z,94.38
2023-01-21T11:20:43.150Z,89.25
2023-01-21T11:25:45.168Z,87.87
2023-01-21T11:30:51.410Z,87.25
2023-01-21T11:35:55.285Z,87.68
2023-01-21T11:41:04.918Z,81.38
2023-01-21T11:46:28.054Z,74.70
2023-01-21T11:51:30.093Z,75.47
2023-01-21T11:56:32.194Z,80.70
2023-01-21T12:01:34.342Z,82.57
2023-01-21T12:06:37.451Z,86.28
2023-01-21T12:11:39.620Z,75.00
2023-01-21T12:16:51.605Z,75.03
2023-01-21T12:22:16.430Z,70.15
2023-01-21T12:27:42.543Z,70.00
2023-01-21T12:32:57.026Z,64.40
2023-01-21T12:38:05.087Z,72.80
2023-01-21T12:43:16.283Z,95.18
2023-01-21T12:48:26.521Z,740.20
2023-01-21T12:53:34.612Z,598.30
2023-01-21T12:58:41.961Z,846.20
2023-01-21T13:04:06.736Z,584.10
2023-01-21T13:09:19.434Z,292.20
2023-01-21T13:14:40.945Z,221.45
2023-01-21T13:19:44.635Z,66.70
2023-01-21T13:24:57.109Z,59.70
2023-01-21T13:30:09.822Z,52.50
2023-01-21T13:35:11.810Z,53.00
2023-01-21T13:40:40.817Z,47.78
2023-01-21T13:45:58.998Z,46.40
2023-01-21T13:51:04.296Z,43.47
2023-01-21T13:56:42.633Z,44.05
2023-01-21T14:01:44.869Z,60.28
2023-01-21T14:07:08.220Z,55.08
2023-01-21T14:12:47.860Z,55.78
2023-01-21T14:18:11.820Z,55.53
2023-01-21T14:23:20.264Z,56.60
2023-01-21T14:28:42.084Z,58.55
2023-01-21T14:33:54.443Z,57.92
2023-01-21T14:39:23.413Z,60.85
2023-01-21T14:44:36.315Z,58.88
2023-01-21T14:49:40.988Z,62.40
2023-01-21T14:54:45.589Z,54.35
2023-01-21T14:59:48.940Z,55.58
2023-01-21T15:04:59.943Z,64.85
2023-01-21T15:10:19.493Z,89.75
2023-01-21T15:15:36.334Z,128.88
2023-01-21T15:20:50.406Z,113.65
2023-01-21T15:26:07.494Z,107.05
2023-01-21T15:31:21.634Z,71.35
2023-01-21T15:36:32.655Z,85.43
2023-01-21T15:42:09.216Z,89.65
2023-01-21T15:47:31.111Z,75.18
2023-01-21T15:52:57.638Z,83.55
2023-01-21T15:58:16.919Z,84.97
2023-01-21T16:03:25.050Z,74.78
2023-01-21T16:08:35.488Z,81.57
2023-01-21T16:14:23.044Z,73.20
2023-01-21T16:19:29.612Z,72.85
2023-01-21T16:24:32.581Z,83.43
2023-01-21T16:29:38.504Z,80.75
2023-01-21T16:34:42.291Z,98.78
2023-01-21T16:39:45.413Z,88.32
2023-01-21T16:44:47.468Z,82.95
2023-01-21T16:49:49.610Z,95.68
2023-01-21T16:54:54.187Z,90.60
2023-01-21T16:59:58.009Z,89.57
2023-01-21T17:05:05.075Z,89.78
2023-01-21T17:11:02.378Z,97.00
2023-01-21T17:16:05.512Z,94.10
2023-01-21T17:21:14.815Z,86.30
2023-01-21T17:26:24.900Z,87.20
2023-01-21T17:31:29.878Z,82.78
2023-01-21T17:36:34.685Z,81.13
2023-01-21T17:41:40.866Z,75.13
2023-01-21T17:46:47.756Z,77.82
2023-01-21T17:51:52.195Z,74.22
2023-01-21T17:56:59.670Z,74.40
2023-01-21T18:02:02.938Z,75.35
2023-01-21T18:07:26.675Z,72.05
2023-01-21T18:12:28.727Z,69.75
2023-01-21T18:17:30.778Z,71.45
2023-01-21T18:22:33.136Z,70.35
2023-01-21T18:27:35.697Z,73.25
2023-01-21T18:32:38.089Z,78.90
2023-01-21T18:37:40.188Z,72.63
2023-01-21T18:42:42.243Z,62.20
2023-01-21T18:47:45.411Z,65.65
2023-01-21T18:52:47.691Z,131.82
2023-01-21T18:57:50.528Z,81.22
2023-01-21T19:02:53.768Z,69.78
2023-01-21T19:07:56.957Z,61.25
2023-01-21T19:12:59.605Z,69.05
2023-01-21T19:18:02.003Z,64.75
2023-01-21T19:23:09.722Z,74.45
2023-01-21T19:28:13.476Z,77.40
2023-01-21T19:33:15.716Z,79.00
2023-01-21T19:38:20.459Z,72.10
2023-01-21T19:43:23.153Z,62.25
2023-01-21T19:48:27.920Z,65.93
2023-01-21T19:53:29.910Z,55.25
2023-01-21T19:58:32.516Z,61.13
2023-01-21T20:03:34.503Z,53.55
2023-01-21T20:08:36.783Z,52.85
2023-01-21T20:13:39.324Z,55.13
2023-01-21T20:18:42.321Z,48.83
2023-01-21T20:23:44.355Z,56.63
2023-01-21T20:28:51.019Z,53.50
2023-01-21T20:33:53.182Z,48.75
2023-01-21T20:38:55.880Z,53.75
2023-01-21T20:43:58.161Z,57.90
2023-01-21T20:49:01.410Z,61.97
2023-01-21T20:54:03.856Z,59.60
2023-01-21T20:59:06.057Z,53.40
2023-01-21T21:04:08.200Z,55.20
2023-01-21T21:09:10.270Z,52.47
2023-01-21T21:14:13.108Z,57.03
2023-01-21T21:19:15.127Z,60.53
2023-01-21T21:24:19.719Z,52.75
2023-01-21T21:29:21.798Z,69.45
2023-01-21T21:34:26.014Z,65.00
2023-01-21T21:39:28.057Z,60.72
2023-01-21T21:44:30.641Z,67.57
2023-01-21T21:49:32.833Z,71.70
2023-01-21T21:54:34.866Z,69.38
2023-01-21T21:59:36.903Z,64.30
2023-01-21T22:04:39.237Z,67.55
2023-01-21T22:09:41.289Z,69.53
2023-01-21T22:14:43.377Z,76.18
2023-01-21T22:19:45.385Z,85.10
2023-01-21T22:24:47.428Z,81.57
2023-01-21T22:29:49.467Z,70.05
2023-01-21T22:34:51.520Z,74.13
2023-01-21T22:39:53.594Z,75.03
2023-01-21T22:44:55.694Z,87.95
2023-01-21T22:49:58.166Z,78.28
2023-01-21T22:55:00.243Z,67.35
2023-01-21T23:00:02.654Z,78.30
2023-01-21T23:05:05.084Z,61.45
2023-01-21T23:10:07.656Z,63.70
2023-01-21T23:15:10.007Z,53.83
2023-01-21T23:20:12.349Z,58.05
2023-01-21T23:25:14.814Z,58.40
2023-01-21T23:30:17.466Z,70.68
2023-01-21T23:35:19.699Z,64.97
2023-01-21T23:40:21.890Z,72.32
2023-01-21T23:45:23.961Z,56.83
2023-01-21T23:50:26.028Z,56.00
2023-01-21T23:55:28.093Z,58.17
